createdAt,value
2022-12-25T00:01:05.773Z,93995.38
2022-12-25T00:02:07.374Z,93991.66
2022-12-25T00:03:09.227Z,93992.78
2022-12-25T00:04:10.843Z,93995.72
2022-12-25T00:05:12.454Z,93997.53
2022-12-25T00:06:14.626Z,93994.09
2022-12-25T00:07:16.188Z,94001.31
2022-12-25T00:08:17.925Z,93998.34
2022-12-25T00:09:19.470Z,93997.34
2022-12-25T00:10:22.714Z,93999.00
2022-12-25T00:11:24.236Z,93994.09
2022-12-25T00:12:25.759Z,93994.75
2022-12-25T00:13:27.612Z,93988.38
2022-12-25T00:14:29.109Z,93995.75
2022-12-25T00:15:30.595Z,93998.22
2022-12-25T00:16:32.232Z,93994.47
2022-12-25T00:17:33.930Z,93988.69
2022-12-25T00:18:35.753Z,93981.16
2022-12-25T00:19:37.330Z,93988.22
2022-12-25T00:20:38.839Z,93985.59
2022-12-25T00:21:40.394Z,93980.53
2022-12-25T00:22:41.877Z,93980.53
2022-12-25T00:23:44.017Z,93980.38
2022-12-25T00:24:47.552Z,93980.22
2022-12-25T00:25:50.517Z,93981.66
2022-12-25T00:26:52.314Z,93980.22
2022-12-25T00:27:53.810Z,93991.69
2022-12-25T00:28:56.847Z,93986.78
2022-12-25T00:29:58.352Z,93989.88
2022-12-25T00:30:59.991Z,93989.38
2022-12-25T00:32:01.570Z,93985.63
2022-12-25T00:33:03.118Z,93984.63
2022-12-25T00:34:04.626Z,93985.78
2022-12-25T00:35:06.860Z,93982.34
2022-12-25T00:36:09.867Z,93985.47
2022-12-25T00:37:11.406Z,93985.13
2022-12-25T00:38:12.921Z,93983.47
2022-12-25T00:39:14.420Z,93980.03
2022-12-25T00:40:15.887Z,93989.88
2022-12-25T00:41:21.011Z,93988.38
2022-12-25T00:42:22.487Z,93990.19
2022-12-25T00:43:24.073Z,93998.75
2022-12-25T00:44:25.644Z,93997.09
2022-12-25T00:45:27.205Z,93999.72
2022-12-25T00:46:28.823Z,93996.13
2022-12-25T00:47:30.351Z,94005.59
2022-12-25T00:48:32.690Z,94010.03
2022-12-25T00:49:34.253Z,94005.13
2022-12-25T00:50:37.909Z,94000.69
2022-12-25T00:51:39.746Z,94001.03
2022-12-25T00:52:41.297Z,93999.88
2022-12-25T00:53:42.781Z,93999.03
2022-12-25T00:54:44.361Z,93999.69
2022-12-25T00:55:50.943Z,93997.75
2022-12-25T00:56:53.775Z,93993.00
2022-12-25T00:57:55.240Z,93994.78
2022-12-25T00:58:56.720Z,94001.03
2022-12-25T00:59:58.192Z,93992.31
2022-12-25T01:00:59.897Z,93996.91
2022-12-25T01:02:01.980Z,93998.72
2022-12-25T01:03:03.862Z,93993.63
2022-12-25T01:04:06.059Z,93990.06
2022-12-25T01:05:09.990Z,93986.13
2022-12-25T01:06:12.040Z,93994.63
2022-12-25T01:07:13.634Z,94000.88
2022-12-25T01:08:15.131Z,93992.34
2022-12-25T01:09:16.652Z,93992.66
2022-12-25T01:10:18.161Z,93992.00
2022-12-25T01:11:19.636Z,93997.75
2022-12-25T01:12:22.520Z,93990.34
2022-12-25T01:13:24.889Z,93995.94
2022-12-25T01:14:26.371Z,93993.31
2022-12-25T01:15:27.917Z,93989.34
2022-12-25T01:16:29.990Z,93992.31
2022-12-25T01:17:31.525Z,93998.41
2022-12-25T01:18:33.086Z,93992.81
2022-12-25T01:19:34.642Z,93991.50
2022-12-25T01:20:36.164Z,93994.47
2022-12-25T01:21:37.707Z,94002.47
2022-12-25T01:22:39.219Z,93996.41
2022-12-25T01:23:40.676Z,93999.38
2022-12-25T01:24:42.230Z,94004.09
2022-12-25T01:25:43.720Z,94001.66
2022-12-25T01:26:45.224Z,93993.81
2022-12-25T01:27:48.069Z,93995.13
2022-12-25T01:28:50.190Z,93998.03
2022-12-25T01:29:51.710Z,93996.56
2022-12-25T01:30:53.198Z,93995.75
2022-12-25T01:31:54.717Z,93995.09
2022-12-25T01:32:56.311Z,93996.75
2022-12-25T01:33:57.783Z,93992.97
2022-12-25T01:34:59.675Z,93995.94
2022-12-25T01:36:01.327Z,93996.25
2022-12-25T01:37:02.820Z,93988.38
2022-12-25T01:38:04.285Z,93993.75
2022-12-25T01:39:05.933Z,93991.31
2022-12-25T01:40:08.581Z,93988.03
2022-12-25T01:41:11.146Z,93990.38
2022-12-25T01:42:16.877Z,93991.50
2022-12-25T01:43:23.887Z,93992.97
2022-12-25T01:45:02.783Z,93992.94
2022-12-25T01:46:04.654Z,93996.75
2022-12-25T01:47:07.308Z,93998.38
2022-12-25T01:48:14.593Z,93998.84
2022-12-25T01:49:20.898Z,93994.28
2022-12-25T01:50:22.826Z,93996.41
2022-12-25T01:51:28.083Z,94000.19
2022-12-25T01:52:29.638Z,93993.31
2022-12-25T01:53:31.548Z,93989.34
2022-12-25T01:54:36.230Z,94003.81
2022-12-25T01:55:39.183Z,94003.13
2022-12-25T01:56:43.505Z,94004.78
2022-12-25T01:57:45.938Z,93998.56
2022-12-25T01:58:48.988Z,94006.72
2022-12-25T01:59:50.673Z,94007.88
2022-12-25T02:00:52.824Z,94001.16
2022-12-25T02:01:54.690Z,94001.47
2022-12-25T02:02:57.414Z,94001.97
2022-12-25T02:04:05.584Z,94001.81
2022-12-25T02:05:11.935Z,94000.50
2022-12-25T02:06:13.573Z,94000.63
2022-12-25T02:07:17.633Z,94001.63
2022-12-25T02:08:21.798Z,93997.19
2022-12-25T02:09:23.331Z,94000.34
2022-12-25T02:10:25.064Z,93997.34
2022-12-25T02:11:26.582Z,93994.22
2022-12-25T02:12:30.505Z,93989.34
2022-12-25T02:13:32.109Z,93995.38
2022-12-25T02:14:37.062Z,93998.19
2022-12-25T02:15:45.673Z,93992.47
2022-12-25T02:16:57.982Z,93995.72
2022-12-25T02:18:06.947Z,93987.19
2022-12-25T02:19:21.507Z,93992.44
2022-12-25T02:20:43.689Z,93990.50
2022-12-25T02:22:05.283Z,93985.25
2022-12-25T02:23:30.836Z,93985.06
2022-12-25T02:24:48.466Z,93981.16
2022-12-25T02:26:12.437Z,93982.31
2022-12-25T02:27:22.344Z,93979.00
2022-12-25T02:28:27.917Z,93979.78
2022-12-25T02:29:36.630Z,93979.81
2022-12-25T02:30:44.229Z,93979.97
2022-12-25T02:31:50.845Z,93983.44
2022-12-25T02:32:58.773Z,93984.41
2022-12-25T02:34:08.741Z,93979.63
2022-12-25T02:35:15.462Z,93988.66
2022-12-25T02:36:22.831Z,93985.88
2022-12-25T02:37:28.623Z,93992.47
2022-12-25T02:38:33.404Z,93993.78
2022-12-25T02:39:55.442Z,93991.16
2022-12-25T02:41:02.109Z,93985.94
2022-12-25T02:42:08.808Z,93974.31
2022-12-25T02:43:17.715Z,93975.63
2022-12-25T02:44:23.166Z,93980.06
2022-12-25T02:45:32.308Z,93970.69
2022-12-25T02:46:34.214Z,93971.19
2022-12-25T02:47:38.155Z,93971.34
2022-12-25T02:48:44.918Z,93974.16
2022-12-25T02:49:47.330Z,93975.31
2022-12-25T02:50:50.027Z,93978.22
2022-12-25T02:51:57.236Z,93980.03
2022-12-25T02:53:01.248Z,93979.72
2022-12-25T02:54:06.289Z,93979.69
2022-12-25T02:55:12.730Z,93984.59
2022-12-25T02:56:14.620Z,93979.50
2022-12-25T02:57:18.519Z,93977.72
2022-12-25T02:58:23.039Z,93979.22
2022-12-25T02:59:28.911Z,93975.09
2022-12-25T03:00:32.370Z,93968.88
2022-12-25T03:01:36.428Z,93979.38
2022-12-25T03:02:41.954Z,93968.84
2022-12-25T03:03:46.867Z,93969.03
2022-12-25T03:04:51.127Z,93969.00
2022-12-25T03:05:57.405Z,93965.91
2022-12-25T03:07:04.682Z,93965.22
2022-12-25T03:08:09.966Z,93969.19
2022-12-25T03:09:15.882Z,93972.09
2022-12-25T03:10:20.955Z,93966.38
2022-12-25T03:11:22.481Z,93971.13
2022-12-25T03:12:34.459Z,93965.91
2022-12-25T03:13:39.687Z,93964.94
2022-12-25T03:14:42.696Z,93963.78
2022-12-25T03:15:45.228Z,93958.34
2022-12-25T03:16:48.781Z,93960.31
2022-12-25T03:17:50.637Z,93954.59
2022-12-25T03:18:54.032Z,93950.81
2022-12-25T03:19:55.603Z,93956.25
2022-12-25T03:20:57.268Z,93952.78
2022-12-25T03:21:58.822Z,93952.44
2022-12-25T03:23:01.157Z,93952.09
2022-12-25T03:24:02.648Z,93950.56
2022-12-25T03:25:04.908Z,93953.19
2022-12-25T03:26:07.310Z,93955.06
2022-12-25T03:27:08.804Z,93954.38
2022-12-25T03:28:10.275Z,93959.91
2022-12-25T03:29:11.954Z,93952.38
2022-12-25T03:30:15.040Z,93961.06
2022-12-25T03:31:21.341Z,93953.53
2022-12-25T03:32:33.744Z,93953.38
2022-12-25T03:33:46.000Z,93949.75
2022-12-25T03:34:54.919Z,93957.63
2022-12-25T03:36:01.523Z,93954.84
2022-12-25T03:37:14.749Z,93948.94
2022-12-25T03:38:23.089Z,93950.28
2022-12-25T03:39:33.629Z,93947.50
2022-12-25T03:40:42.605Z,93952.72
2022-12-25T03:41:47.699Z,93953.38
2022-12-25T03:42:56.075Z,93962.78
2022-12-25T03:44:07.505Z,93964.56
2022-12-25T03:45:11.746Z,93964.75
2022-12-25T03:46:17.667Z,93959.63
2022-12-25T03:47:24.628Z,93959.31
2022-12-25T03:48:28.462Z,93955.53
2022-12-25T03:49:37.531Z,93964.22
2022-12-25T03:50:43.794Z,93960.47
2022-12-25T03:51:47.708Z,93961.94
2022-12-25T03:52:51.240Z,93957.34
2022-12-25T03:53:57.805Z,93956.69
2022-12-25T03:55:03.522Z,93960.78
2022-12-25T03:56:06.160Z,93964.56
2022-12-25T03:57:08.885Z,93960.44
2022-12-25T03:58:17.652Z,93963.06
2022-12-25T03:59:23.853Z,93955.41
2022-12-25T04:00:25.701Z,93953.56
2022-12-25T04:01:28.611Z,93950.34
2022-12-25T04:02:30.486Z,93940.94
2022-12-25T04:03:32.293Z,93938.69
2022-12-25T04:04:33.881Z,93940.66
2022-12-25T04:05:35.369Z,93948.56
2022-12-25T04:06:37.253Z,93943.94
2022-12-25T04:07:38.959Z,93940.19
2022-12-25T04:08:40.421Z,93944.91
2022-12-25T04:09:41.913Z,93946.06
2022-12-25T04:10:43.426Z,93945.59
2022-12-25T04:11:44.992Z,93949.03
2022-12-25T04:12:46.475Z,93953.09
2022-12-25T04:13:48.013Z,93945.72
2022-12-25T04:14:49.502Z,93951.09
2022-12-25T04:15:51.486Z,93949.81
2022-12-25T04:16:54.340Z,93954.38
2022-12-25T04:17:55.858Z,93958.31
2022-12-25T04:18:57.405Z,93948.63
2022-12-25T04:19:58.895Z,93954.06
2022-12-25T04:21:00.400Z,93958.69
2022-12-25T04:22:01.909Z,93952.44
2022-12-25T04:23:03.425Z,93949.13
2022-12-25T04:24:06.007Z,93949.97
2022-12-25T04:25:07.866Z,93947.19
2022-12-25T04:26:09.425Z,93949.47
2022-12-25T04:27:10.904Z,93944.06
2022-12-25T04:28:12.389Z,93948.47
2022-12-25T04:29:13.897Z,93949.16
2022-12-25T04:30:15.603Z,93952.44
2022-12-25T04:31:17.160Z,93957.69
2022-12-25T04:32:20.046Z,93950.91
2022-12-25T04:33:21.554Z,93949.44
2022-12-25T04:34:23.075Z,93946.00
2022-12-25T04:35:24.674Z,93939.94
2022-12-25T04:36:26.154Z,93943.09
2022-12-25T04:37:27.651Z,93936.03
2022-12-25T04:38:29.146Z,93945.47
2022-12-25T04:39:30.675Z,93941.97
2022-12-25T04:40:32.165Z,93938.50
2022-12-25T04:41:33.656Z,93945.03
2022-12-25T04:42:35.129Z,93943.41
2022-12-25T04:43:36.838Z,93944.56
2022-12-25T04:44:38.419Z,93946.41
2022-12-25T04:45:39.977Z,93940.66
2022-12-25T04:46:41.536Z,93949.84
2022-12-25T04:47:44.407Z,93948.81
2022-12-25T04:48:45.929Z,93945.91
2022-12-25T04:49:47.417Z,93942.28
2022-12-25T04:50:49.257Z,93943.44
2022-12-25T04:51:50.823Z,93944.41
2022-12-25T04:52:52.310Z,93945.22
2022-12-25T04:53:54.547Z,93945.56
2022-12-25T04:56:22.033Z,93937.06
2022-12-25T04:57:23.553Z,93942.97
2022-12-25T04:58:25.077Z,93941.66
2022-12-25T04:59:26.608Z,93936.41
2022-12-25T05:00:28.135Z,93941.50
2022-12-25T05:01:29.878Z,93939.84
2022-12-25T05:02:31.720Z,93952.16
2022-12-25T05:03:35.520Z,93943.47
2022-12-25T05:04:37.075Z,93937.59
2022-12-25T05:05:39.577Z,93933.31
2022-12-25T05:06:41.105Z,93935.44
2022-12-25T05:07:42.664Z,93936.31
2022-12-25T05:08:44.177Z,93933.66
2022-12-25T05:09:45.734Z,93928.13
2022-12-25T05:10:47.552Z,93923.47
2022-12-25T05:11:49.041Z,93923.47
2022-12-25T05:12:50.565Z,93926.25
2022-12-25T05:13:52.272Z,93929.38
2022-12-25T05:14:53.791Z,93932.81
2022-12-25T05:15:55.391Z,93918.72
2022-12-25T05:16:56.952Z,93923.00
2022-12-25T05:17:58.449Z,93912.69
2022-12-25T05:19:01.281Z,93914.94
2022-12-25T05:20:03.347Z,93918.22
2022-12-25T05:21:05.262Z,93904.13
2022-12-25T05:22:06.761Z,93901.69
2022-12-25T05:23:10.455Z,93905.78
2022-12-25T05:24:11.979Z,93915.59
2022-12-25T05:25:13.640Z,93911.88
2022-12-25T05:26:16.951Z,93921.19
2022-12-25T05:27:18.437Z,93915.66
2022-12-25T05:28:19.914Z,93917.59
2022-12-25T05:29:21.523Z,93919.25
2022-12-25T05:30:23.065Z,93921.22
2022-12-25T05:31:24.669Z,93927.75
2022-12-25T05:32:26.179Z,93928.09
2022-12-25T05:33:27.762Z,93928.09
2022-12-25T05:34:30.712Z,93918.72
2022-12-25T05:35:32.250Z,93922.00
2022-12-25T05:36:33.749Z,93921.34
2022-12-25T05:37:35.828Z,93913.97
2022-12-25T05:38:38.000Z,93917.91
2022-12-25T05:39:39.496Z,93900.69
2022-12-25T05:40:40.995Z,93905.59
2022-12-25T05:41:42.571Z,93909.06
2022-12-25T05:42:44.171Z,93910.84
2022-12-25T05:43:45.776Z,93914.78
2022-12-25T05:44:47.291Z,93904.34
2022-12-25T05:45:48.789Z,93900.34
2022-12-25T05:46:50.324Z,93913.47
2022-12-25T05:47:52.496Z,93913.81
2022-12-25T05:48:53.974Z,93912.84
2022-12-25T05:49:56.793Z,93915.13
2022-12-25T05:50:58.272Z,93907.25
2022-12-25T05:51:59.781Z,93911.19
2022-12-25T05:53:07.725Z,93902.16
2022-12-25T05:54:09.672Z,93906.41
2022-12-25T05:55:11.205Z,93899.22
2022-12-25T05:56:12.900Z,93903.44
2022-12-25T05:57:14.411Z,93900.25
2022-12-25T05:58:15.902Z,93897.44
2022-12-25T05:59:17.443Z,93898.38
2022-12-25T06:00:20.053Z,93897.38
2022-12-25T06:01:23.652Z,93898.38
2022-12-25T06:02:25.786Z,93888.03
2022-12-25T06:03:27.604Z,93885.25
2022-12-25T06:04:44.238Z,93888.38
2022-12-25T06:05:47.103Z,93888.28
2022-12-25T06:06:49.803Z,93896.09
2022-12-25T06:07:51.336Z,93894.66
2022-12-25T06:08:53.816Z,93902.69
2022-12-25T06:09:55.344Z,93896.25
2022-12-25T06:10:56.861Z,93903.97
2022-12-25T06:11:58.484Z,93897.41
2022-12-25T06:12:59.956Z,93907.25
2022-12-25T06:14:01.474Z,93912.16
2022-12-25T06:15:03.210Z,93907.75
2022-12-25T06:16:05.648Z,93911.50
2022-12-25T06:17:07.191Z,93907.25
2022-12-25T06:18:08.955Z,93908.09
2022-12-25T06:19:10.515Z,93913.34
2022-12-25T06:20:12.049Z,93903.34
2022-12-25T06:21:15.860Z,93901.91
2022-12-25T06:22:17.354Z,93903.34
2022-12-25T06:23:24.805Z,93911.53
2022-12-25T06:24:26.349Z,93912.03
2022-12-25T06:25:27.887Z,93906.63
2022-12-25T06:26:29.385Z,93896.75
2022-12-25T06:27:30.900Z,93902.16
2022-12-25T06:28:32.411Z,93903.16
2022-12-25T06:29:33.928Z,93897.91
2022-12-25T06:30:41.160Z,93908.25
2022-12-25T06:31:42.703Z,93905.31
2022-12-25T06:32:44.351Z,93905.94
2022-12-25T06:33:46.198Z,93895.28
2022-12-25T06:34:47.728Z,93900.00
2022-12-25T06:35:49.250Z,93890.84
2022-12-25T06:36:52.104Z,93895.13
2022-12-25T06:37:53.654Z,93899.72
2022-12-25T06:38:55.344Z,93898.56
2022-12-25T06:39:56.895Z,93893.47
2022-12-25T06:41:03.801Z,93886.75
2022-12-25T06:42:05.351Z,93887.09
2022-12-25T06:43:06.848Z,93896.81
2022-12-25T06:44:08.964Z,93881.34
2022-12-25T06:45:11.139Z,93886.94
2022-12-25T06:46:12.964Z,93884.94
2022-12-25T06:47:14.553Z,93888.41
2022-12-25T06:48:16.075Z,93885.47
2022-12-25T06:49:17.611Z,93877.41
2022-12-25T06:50:19.110Z,93877.25
2022-12-25T06:51:22.489Z,93885.09
2022-12-25T06:52:25.291Z,93881.97
2022-12-25T06:53:26.816Z,93885.13
2022-12-25T06:54:28.434Z,93884.59
2022-12-25T06:55:29.945Z,93885.25
2022-12-25T06:56:33.272Z,93887.22
2022-12-25T06:57:34.796Z,93897.06
2022-12-25T06:58:36.533Z,93896.59
2022-12-25T06:59:38.041Z,93895.28
2022-12-25T07:00:39.584Z,93899.00
2022-12-25T07:01:46.200Z,93900.00
2022-12-25T07:02:49.576Z,93895.41
2022-12-25T07:03:54.605Z,93884.78
2022-12-25T07:05:05.676Z,93884.78
2022-12-25T07:06:07.254Z,93888.50
2022-12-25T07:07:09.800Z,93901.31
2022-12-25T07:08:12.826Z,93899.81
2022-12-25T07:09:14.330Z,93901.75
2022-12-25T07:10:15.839Z,93897.00
2022-12-25T07:11:18.059Z,93892.41
2022-12-25T07:12:21.721Z,93900.94
2022-12-25T07:13:23.218Z,93889.25
2022-12-25T07:14:24.877Z,93895.19
2022-12-25T07:15:26.422Z,93891.22
2022-12-25T07:16:27.994Z,93894.03
2022-12-25T07:17:29.597Z,93894.97
2022-12-25T07:18:49.739Z,93897.00
2022-12-25T07:19:51.258Z,93896.19
2022-12-25T07:20:52.876Z,93891.94
2022-12-25T07:21:54.406Z,93896.03
2022-12-25T07:22:55.938Z,93897.00
2022-12-25T07:23:58.789Z,93891.22
2022-12-25T07:25:00.301Z,93889.09
2022-12-25T07:26:02.323Z,93898.63
2022-12-25T07:27:03.967Z,93895.78
2022-12-25T07:28:05.560Z,93898.94
2022-12-25T07:29:07.052Z,93895.66
2022-12-25T07:30:09.735Z,93893.09
2022-12-25T07:31:13.764Z,93902.25
2022-12-25T07:32:15.391Z,93895.50
2022-12-25T07:33:17.343Z,93896.78
2022-12-25T07:34:19.147Z,93888.22
2022-12-25T07:35:20.597Z,93894.00
2022-12-25T07:36:22.099Z,93891.53
2022-12-25T07:37:23.618Z,93892.19
2022-12-25T07:38:25.283Z,93899.72
2022-12-25T07:39:28.285Z,93897.25
2022-12-25T07:40:30.101Z,93891.66
2022-12-25T07:41:31.646Z,93891.34
2022-12-25T07:42:33.176Z,93897.44
2022-12-25T07:43:34.703Z,93893.94
2022-12-25T07:44:36.233Z,93889.94
2022-12-25T07:45:37.764Z,93888.28
2022-12-25T07:46:39.370Z,93887.25
2022-12-25T07:47:40.894Z,93891.22
2022-12-25T07:48:42.374Z,93886.31
2022-12-25T07:50:02.308Z,93885.88
2022-12-25T07:51:05.804Z,93885.84
2022-12-25T07:52:07.303Z,93885.75
2022-12-25T07:53:08.801Z,93884.25
2022-12-25T07:54:10.345Z,93891.13
2022-12-25T07:55:36.967Z,93891.59
2022-12-25T07:56:38.475Z,93899.13
2022-12-25T07:57:40.130Z,93894.16
2022-12-25T07:58:41.959Z,93896.03
2022-12-25T07:59:43.469Z,93892.38
2022-12-25T08:00:45.008Z,93904.69
2022-12-25T08:01:49.153Z,93899.31
2022-12-25T08:02:51.080Z,93896.94
2022-12-25T08:03:54.506Z,93900.34
2022-12-25T08:04:56.183Z,93887.38
2022-12-25T08:05:59.887Z,93893.75
2022-12-25T08:07:01.415Z,93886.25
2022-12-25T08:08:02.948Z,93898.28
2022-12-25T08:09:06.541Z,93896.88
2022-12-25T08:10:08.532Z,93893.16
2022-12-25T08:11:11.389Z,93893.44
2022-12-25T08:12:12.902Z,93888.63
2022-12-25T08:13:14.900Z,93890.44
2022-12-25T08:14:16.583Z,93895.69
2022-12-25T08:15:18.099Z,93889.44
2022-12-25T08:16:19.621Z,93892.41
2022-12-25T08:17:21.183Z,93885.81
2022-12-25T08:18:29.414Z,93888.38
2022-12-25T08:19:31.599Z,93884.38
2022-12-25T08:20:34.483Z,93888.84
2022-12-25T08:21:36.374Z,93884.88
2022-12-25T08:22:37.924Z,93884.06
2022-12-25T08:23:41.906Z,93882.03
2022-12-25T08:24:43.446Z,93881.31
2022-12-25T08:25:45.020Z,93885.38
2022-12-25T08:26:48.306Z,93886.81
2022-12-25T08:27:49.793Z,93887.50
2022-12-25T08:28:51.736Z,93887.00
2022-12-25T08:29:53.320Z,93882.03
2022-12-25T08:30:54.865Z,93886.91
2022-12-25T08:31:56.628Z,93888.28
2022-12-25T08:33:02.117Z,93883.47
2022-12-25T08:34:04.815Z,93887.94
2022-12-25T08:35:07.396Z,93887.22
2022-12-25T08:36:10.952Z,93889.97
2022-12-25T08:37:12.499Z,93895.09
2022-12-25T08:38:14.132Z,93897.66
2022-12-25T08:39:24.544Z,93894.00
2022-12-25T08:40:26.926Z,93883.81
2022-12-25T08:41:28.452Z,93890.53
2022-12-25T08:42:31.610Z,93886.06
2022-12-25T08:43:33.128Z,93893.16
2022-12-25T08:44:34.643Z,93892.03
2022-12-25T08:45:36.139Z,93895.81
2022-12-25T08:46:37.694Z,93889.84
2022-12-25T08:47:39.209Z,93897.53
2022-12-25T08:48:42.240Z,93901.28
2022-12-25T08:49:43.737Z,93891.59
2022-12-25T08:50:46.027Z,93891.84
2022-12-25T08:51:47.549Z,93893.22
2022-12-25T08:52:49.260Z,93888.75
2022-12-25T08:53:52.259Z,93885.84
2022-12-25T08:54:53.756Z,93879.41
2022-12-25T08:56:07.917Z,93867.25
2022-12-25T08:57:09.428Z,93876.06
2022-12-25T08:58:12.584Z,93873.06
2022-12-25T08:59:14.145Z,93869.69
2022-12-25T09:00:16.392Z,93879.97
2022-12-25T09:01:17.976Z,93878.66
2022-12-25T09:02:19.688Z,93884.31
2022-12-25T09:03:21.401Z,93884.94
2022-12-25T09:04:23.001Z,93890.34
2022-12-25T09:05:24.531Z,93898.31
2022-12-25T09:06:26.018Z,93886.34
2022-12-25T09:07:27.581Z,93887.69
2022-12-25T09:08:29.103Z,93883.94
2022-12-25T09:09:30.636Z,93886.66
2022-12-25T09:10:35.218Z,93885.13
2022-12-25T09:11:36.906Z,93885.78
2022-12-25T09:12:39.022Z,93885.94
2022-12-25T09:13:42.092Z,93884.31
2022-12-25T09:14:43.661Z,93883.94
2022-12-25T09:15:45.243Z,93878.75
2022-12-25T09:16:46.781Z,93878.41
2022-12-25T09:17:48.395Z,93885.56
2022-12-25T09:18:50.080Z,93880.91
2022-12-25T09:19:51.610Z,93890.75
2022-12-25T09:20:59.817Z,93881.91
2022-12-25T09:22:01.286Z,93879.84
2022-12-25T09:23:03.681Z,93879.00
2022-12-25T09:24:08.252Z,93877.81
2022-12-25T09:25:10.058Z,93882.34
2022-12-25T09:26:14.186Z,93878.75
2022-12-25T09:27:15.957Z,93871.88
2022-12-25T09:28:17.442Z,93876.22
2022-12-25T09:29:20.292Z,93868.13
2022-12-25T09:30:21.957Z,93859.47
2022-12-25T09:31:23.852Z,93860.34
2022-12-25T09:32:25.381Z,93861.53
2022-12-25T09:33:27.077Z,93858.78
2022-12-25T09:34:28.582Z,93851.56
2022-12-25T09:35:30.050Z,93854.91
2022-12-25T09:36:31.531Z,93855.03
2022-12-25T09:37:33.057Z,93857.03
2022-12-25T09:38:35.987Z,93852.28
2022-12-25T09:39:42.295Z,93856.78
2022-12-25T09:40:47.699Z,93861.69
2022-12-25T09:41:54.788Z,93856.09
2022-12-25T09:42:56.840Z,93855.03
2022-12-25T09:44:02.327Z,93849.69
2022-12-25T09:45:11.453Z,93851.56
2022-12-25T09:46:17.149Z,93850.38
2022-12-25T09:47:22.016Z,93853.50
2022-12-25T09:48:24.391Z,93841.28
2022-12-25T09:49:35.681Z,93847.97
2022-12-25T09:50:43.586Z,93848.13
2022-12-25T09:51:48.452Z,93843.91
2022-12-25T09:52:55.041Z,93844.16
2022-12-25T09:54:04.353Z,93849.09
2022-12-25T09:55:17.874Z,93852.56
2022-12-25T09:56:24.189Z,93852.59
2022-12-25T09:57:26.470Z,93853.41
2022-12-25T09:58:30.233Z,93855.69
2022-12-25T09:59:31.801Z,93849.94
2022-12-25T10:00:40.613Z,93857.69
2022-12-25T10:01:55.712Z,93853.25
2022-12-25T10:03:17.761Z,93856.31
2022-12-25T10:04:41.980Z,93855.66
2022-12-25T10:06:16.412Z,93854.59
2022-12-25T10:07:26.994Z,93849.75
2022-12-25T10:08:46.272Z,93858.91
2022-12-25T10:09:59.756Z,93858.34
2022-12-25T10:11:10.535Z,93859.88
2022-12-25T10:12:29.476Z,93856.16
2022-12-25T10:13:45.208Z,93856.16
2022-12-25T10:15:00.980Z,93857.84
2022-12-25T10:16:17.373Z,93860.34
2022-12-25T10:17:32.968Z,93857.13
2022-12-25T10:18:47.155Z,93857.19
2022-12-25T10:19:59.669Z,93853.63
2022-12-25T10:21:09.377Z,93851.91
2022-12-25T10:22:19.317Z,93860.03
2022-12-25T10:23:26.114Z,93852.38
2022-12-25T10:24:33.959Z,93855.13
2022-12-25T10:25:38.654Z,93854.19
2022-12-25T10:26:40.426Z,93849.16
2022-12-25T10:27:42.973Z,93854.44
2022-12-25T10:28:46.795Z,93847.72
2022-12-25T10:29:53.309Z,93848.94
2022-12-25T10:31:01.954Z,93851.38
2022-12-25T10:32:05.003Z,93848.84
2022-12-25T10:33:06.512Z,93848.09
2022-12-25T10:34:12.316Z,93846.09
2022-12-25T10:35:16.415Z,93854.63
2022-12-25T10:36:19.896Z,93848.63
2022-12-25T10:37:21.406Z,93851.31
2022-12-25T10:38:22.894Z,93837.16
2022-12-25T10:39:26.356Z,93836.72
2022-12-25T10:40:40.504Z,93834.09
2022-12-25T10:42:01.764Z,93836.13
2022-12-25T10:43:10.987Z,93831.50
2022-12-25T10:44:13.964Z,93829.22
2022-12-25T10:45:15.591Z,93829.84
2022-12-25T10:46:21.344Z,93825.41
2022-12-25T10:47:26.667Z,93828.19
2022-12-25T10:48:30.002Z,93829.00
2022-12-25T10:49:35.171Z,93832.66
2022-12-25T10:50:42.840Z,93822.72
2022-12-25T10:51:44.384Z,93826.78
2022-12-25T10:52:56.019Z,93830.00
2022-12-25T10:53:57.864Z,93824.34
2022-12-25T10:55:11.294Z,93820.22
2022-12-25T10:56:17.717Z,93820.28
2022-12-25T10:57:21.088Z,93826.50
2022-12-25T10:58:22.601Z,93825.13
2022-12-25T10:59:25.011Z,93824.50
2022-12-25T11:00:28.988Z,93820.47
2022-12-25T11:01:30.644Z,93817.44
2022-12-25T11:02:39.111Z,93825.41
2022-12-25T11:03:44.871Z,93824.34
2022-12-25T11:04:46.766Z,93816.00
2022-12-25T11:05:50.259Z,93813.31
2022-12-25T11:07:01.290Z,93812.91
2022-12-25T11:08:03.703Z,93815.72
2022-12-25T11:09:05.371Z,93809.75
2022-12-25T11:10:21.036Z,93810.81
2022-12-25T11:11:23.211Z,93801.88
2022-12-25T11:12:30.766Z,93798.22
2022-12-25T11:13:34.705Z,93797.84
2022-12-25T11:14:37.206Z,93797.00
2022-12-25T11:15:41.929Z,93797.84
2022-12-25T11:16:43.583Z,93796.53
2022-12-25T11:17:49.557Z,93788.66
2022-12-25T11:18:53.114Z,93786.47
2022-12-25T11:19:55.965Z,93791.25
2022-12-25T11:20:59.387Z,93783.84
2022-12-25T11:22:02.417Z,93780.59
2022-12-25T11:23:10.086Z,93782.63
2022-12-25T11:24:19.905Z,93781.81
2022-12-25T11:25:23.989Z,93772.88
2022-12-25T11:26:26.274Z,93782.88
2022-12-25T11:27:30.064Z,93788.78
2022-12-25T11:28:33.981Z,93779.41
2022-12-25T11:29:41.418Z,93775.31
2022-12-25T11:30:43.060Z,93774.50
2022-12-25T11:31:46.344Z,93767.06
2022-12-25T11:32:52.752Z,93771.16
2022-12-25T11:33:59.092Z,93761.56
2022-12-25T11:35:02.392Z,93769.41
2022-12-25T11:36:25.227Z,93764.34
2022-12-25T11:37:33.868Z,93764.44
2022-12-25T11:38:35.373Z,93755.53
2022-12-25T11:39:39.955Z,93759.78
2022-12-25T11:40:46.753Z,93763.06
2022-12-25T11:41:50.777Z,93762.88
2022-12-25T11:42:55.679Z,93763.47
2022-12-25T11:44:00.931Z,93766.97
2022-12-25T11:45:06.747Z,93759.50
2022-12-25T11:46:14.828Z,93758.72
2022-12-25T11:47:21.658Z,93747.06
2022-12-25T11:48:29.568Z,93762.13
2022-12-25T11:49:45.865Z,93756.41
2022-12-25T11:50:55.324Z,93751.97
2022-12-25T11:52:03.098Z,93756.22
2022-12-25T11:53:07.194Z,93756.44
2022-12-25T11:54:17.652Z,93753.44
2022-12-25T11:55:24.013Z,93753.44
2022-12-25T11:56:28.166Z,93750.44
2022-12-25T11:57:31.104Z,93759.19
2022-12-25T11:58:36.113Z,93757.38
2022-12-25T11:59:47.388Z,93752.69
2022-12-25T12:00:52.061Z,93753.31
2022-12-25T12:01:58.789Z,93751.88
2022-12-25T12:03:06.755Z,93752.91
2022-12-25T12:04:17.263Z,93750.06
2022-12-25T12:05:23.407Z,93753.50
2022-12-25T12:06:29.836Z,93759.59
2022-12-25T12:07:32.932Z,93751.66
2022-12-25T12:08:36.078Z,93749.44
2022-12-25T12:09:48.380Z,93745.78
2022-12-25T12:11:04.574Z,93756.94
2022-12-25T12:12:11.463Z,93761.63
2022-12-25T12:13:24.099Z,93754.28
2022-12-25T12:14:40.642Z,93754.22
2022-12-25T12:15:44.932Z,93747.75
2022-12-25T12:16:46.581Z,93743.94
2022-12-25T12:17:48.177Z,93743.47
2022-12-25T12:18:50.796Z,93741.69
2022-12-25T12:19:53.856Z,93739.22
2022-12-25T12:21:01.392Z,93731.28
2022-12-25T12:22:04.263Z,93731.91
2022-12-25T12:23:15.513Z,93725.63
2022-12-25T12:24:20.740Z,93729.09
2022-12-25T12:25:22.882Z,93723.84
2022-12-25T12:26:26.647Z,93723.84
2022-12-25T12:27:34.720Z,93731.16
2022-12-25T12:28:44.864Z,93721.41
2022-12-25T12:29:50.762Z,93710.97
2022-12-25T12:31:01.766Z,93707.78
2022-12-25T12:32:05.645Z,93702.09
2022-12-25T12:33:08.110Z,93698.03
2022-12-25T12:34:21.671Z,93695.78